createdAt,value
2023-02-12T00:01:28.132Z,59.40
2023-02-12T00:04:05.076Z,59.52
2023-02-12T00:06:42.888Z,59.54
2023-02-12T00:09:14.177Z,59.51
2023-02-12T00:11:53.895Z,59.66
2023-02-12T00:14:29.947Z,59.56
2023-02-12T00:17:00.996Z,59.53
2023-02-12T00:19:34.245Z,59.51
2023-02-12T00:22:10.314Z,59.73
2023-02-12T00:24:42.252Z,59.93
2023-02-12T00:27:13.379Z,60.14
2023-02-12T00:29:41.052Z,60.01
2023-02-12T00:32:08.841Z,60.06
2023-02-12T00:34:36.929Z,59.95
2023-02-12T00:37:04.614Z,59.85
2023-02-12T00:39:32.140Z,60.09
2023-02-12T00:41:59.956Z,60.24
2023-02-12T00:44:28.296Z,60.12
2023-02-12T00:46:57.391Z,60.12
2023-02-12T00:49:25.338Z,60.24
2023-02-12T00:51:53.183Z,60.42
2023-02-12T00:54:20.910Z,60.57
2023-02-12T00:56:48.986Z,60.64
2023-02-12T00:59:16.613Z,60.75
2023-02-12T01:01:44.246Z,60.80
2023-02-12T01:04:12.479Z,60.99
2023-02-12T01:06:40.161Z,61.02
2023-02-12T01:09:07.887Z,61.14
2023-02-12T01:11:36.145Z,61.09
2023-02-12T01:14:04.586Z,61.11
2023-02-12T01:16:33.568Z,61.05
2023-02-12T01:19:01.117Z,60.88
2023-02-12T01:21:31.999Z,61.17
2023-02-12T01:24:00.416Z,61.19
2023-02-12T01:26:30.293Z,61.34
2023-02-12T01:29:02.350Z,61.40
2023-02-12T01:31:35.312Z,61.37
2023-02-12T01:34:05.160Z,61.53
2023-02-12T01:36:34.680Z,61.59
2023-02-12T01:39:07.165Z,61.63
2023-02-12T01:41:45.711Z,61.57
2023-02-12T01:44:22.642Z,61.56
2023-02-12T01:47:00.568Z,61.74
2023-02-12T01:49:43.232Z,61.84
2023-02-12T01:52:23.623Z,61.78
2023-02-12T01:54:59.758Z,61.87
2023-02-12T01:57:34.503Z,62.09
2023-02-12T02:00:06.830Z,61.90
2023-02-12T02:02:41.708Z,62.01
2023-02-12T02:05:09.671Z,62.06
2023-02-12T02:07:37.525Z,62.20
2023-02-12T02:10:08.164Z,62.20
2023-02-12T02:12:55.176Z,62.10
2023-02-12T02:15:25.534Z,62.03
2023-02-12T02:18:19.407Z,62.16
2023-02-12T02:21:33.679Z,62.13
2023-02-12T02:24:35.333Z,62.21
2023-02-12T02:27:19.421Z,62.64
2023-02-12T02:30:26.097Z,62.55
2023-02-12T02:33:28.261Z,62.64
2023-02-12T02:36:36.286Z,62.66
2023-02-12T02:39:21.493Z,62.74
2023-02-12T02:42:03.607Z,62.65
2023-02-12T02:44:55.664Z,62.79
2023-02-12T02:47:31.682Z,62.96
2023-02-12T02:50:07.123Z,63.11
2023-02-12T02:52:48.933Z,63.30
2023-02-12T02:55:20.179Z,63.42
2023-02-12T02:57:56.313Z,63.33
2023-02-12T03:00:35.297Z,63.48
2023-02-12T03:03:11.515Z,63.45
2023-02-12T03:05:46.738Z,63.30
2023-02-12T03:08:25.406Z,63.36
2023-02-12T03:11:01.055Z,63.20
2023-02-12T03:13:34.031Z,63.20
2023-02-12T03:16:15.964Z,63.35
2023-02-12T03:18:58.492Z,63.34
2023-02-12T03:21:37.058Z,63.34
2023-02-12T03:24:27.652Z,63.23
2023-02-12T03:27:12.659Z,63.33
2023-02-12T03:29:40.281Z,63.41
2023-02-12T03:32:37.275Z,63.51
2023-02-12T03:35:16.154Z,63.48
2023-02-12T03:38:09.705Z,63.56
2023-02-12T03:40:42.155Z,63.49
2023-02-12T03:43:26.789Z,63.61
2023-02-12T03:46:14.807Z,63.51
2023-02-12T03:48:47.485Z,63.44
2023-02-12T03:51:38.075Z,63.40
2023-02-12T03:54:09.843Z,63.23
2023-02-12T03:57:01.297Z,63.30
2023-02-12T03:59:29.761Z,63.25
2023-02-12T04:01:59.129Z,63.36
2023-02-12T04:04:27.885Z,63.40
2023-02-12T04:06:56.311Z,63.46
2023-02-12T04:09:27.441Z,63.50
2023-02-12T04:12:31.397Z,63.43
2023-02-12T04:15:10.521Z,63.45
2023-02-12T04:17:52.815Z,63.46
2023-02-12T04:20:41.120Z,63.46
2023-02-12T04:23:26.183Z,63.33
2023-02-12T04:26:26.570Z,63.44
2023-02-12T04:29:15.969Z,63.52
2023-02-12T04:32:05.363Z,63.56
2023-02-12T04:34:56.802Z,63.63
2023-02-12T04:37:35.430Z,63.63
2023-02-12T04:40:07.765Z,63.53
2023-02-12T04:42:49.893Z,63.47
2023-02-12T04:45:28.237Z,63.32
2023-02-12T04:47:57.180Z,62.88
2023-02-12T04:50:25.293Z,63.15
2023-02-12T04:52:53.225Z,63.40
2023-02-12T04:55:20.815Z,63.37
2023-02-12T04:57:48.653Z,63.42
2023-02-12T05:00:17.622Z,63.50
2023-02-12T05:02:45.100Z,63.45
2023-02-12T05:05:12.996Z,63.45
2023-02-12T05:07:40.343Z,63.52
2023-02-12T05:10:09.351Z,63.62
2023-02-12T05:12:36.946Z,63.50
2023-02-12T05:15:04.976Z,63.38
2023-02-12T05:17:32.874Z,63.49
2023-02-12T05:20:00.682Z,63.43
2023-02-12T05:22:28.437Z,63.42
2023-02-12T05:24:56.075Z,63.61
2023-02-12T05:27:23.968Z,63.56
2023-02-12T05:29:51.319Z,63.72
2023-02-12T05:32:19.082Z,63.86
2023-02-12T05:34:46.618Z,63.89
2023-02-12T05:37:14.427Z,63.89
2023-02-12T05:39:41.935Z,63.83
2023-02-12T05:42:09.387Z,63.77
2023-02-12T05:44:37.045Z,63.77
2023-02-12T05:47:04.991Z,63.69
2023-02-12T05:49:32.990Z,63.69
2023-02-12T05:52:00.612Z,63.66
2023-02-12T05:54:30.225Z,63.62
2023-02-12T05:56:58.047Z,63.55
2023-02-12T05:59:25.635Z,63.52
2023-02-12T06:01:53.608Z,63.44
2023-02-12T06:04:27.839Z,63.40
2023-02-12T06:06:56.108Z,63.41
2023-02-12T06:09:24.658Z,63.39
2023-02-12T06:11:52.432Z,63.31
2023-02-12T06:14:20.934Z,63.30
2023-02-12T06:16:50.991Z,63.24
2023-02-12T06:19:19.874Z,63.26
2023-02-12T06:21:49.888Z,63.29
2023-02-12T06:24:18.134Z,63.28
2023-02-12T06:26:49.199Z,63.14
2023-02-12T06:29:17.432Z,63.11
2023-02-12T06:31:45.263Z,63.08
2023-02-12T06:34:16.633Z,63.05
2023-02-12T06:36:47.099Z,62.89
2023-02-12T06:39:17.469Z,62.84
2023-02-12T06:41:45.616Z,62.78
2023-02-12T06:44:13.531Z,62.71
2023-02-12T06:46:41.355Z,62.62
2023-02-12T06:49:13.598Z,62.62
2023-02-12T06:51:42.026Z,62.54
2023-02-12T06:54:18.177Z,62.54
2023-02-12T06:56:45.919Z,62.48
2023-02-12T06:59:16.881Z,62.30
2023-02-12T07:01:45.198Z,62.24
2023-02-12T07:04:13.141Z,62.05
2023-02-12T07:06:42.883Z,62.06
2023-02-12T07:09:10.668Z,62.13
2023-02-12T07:11:38.899Z,61.99
2023-02-12T07:14:07.664Z,61.89
2023-02-12T07:16:35.388Z,61.82
2023-02-12T07:19:03.282Z,61.83
2023-02-12T07:21:31.684Z,61.83
2023-02-12T07:23:59.646Z,61.79
2023-02-12T07:26:27.297Z,61.83
2023-02-12T07:28:56.702Z,61.98
2023-02-12T07:31:24.592Z,61.99
2023-02-12T07:33:58.965Z,61.93
2023-02-12T07:36:30.549Z,61.72
2023-02-12T07:38:59.459Z,61.69
2023-02-12T07:41:33.736Z,61.67
2023-02-12T07:44:09.546Z,61.72
2023-02-12T07:46:48.448Z,61.67
2023-02-12T07:49:20.998Z,61.71
2023-02-12T07:51:50.098Z,61.45
2023-02-12T07:54:17.794Z,61.38
2023-02-12T07:56:48.638Z,61.10
2023-02-12T07:59:18.784Z,61.04
2023-02-12T08:01:52.047Z,60.98
2023-02-12T08:04:24.390Z,61.00
2023-02-12T08:06:55.124Z,60.96
2023-02-12T08:09:30.544Z,61.02
2023-02-12T08:11:59.040Z,61.03
2023-02-12T08:14:27.320Z,61.00
2023-02-12T08:16:55.514Z,61.04
2023-02-12T08:19:26.326Z,60.75
2023-02-12T08:21:54.635Z,60.66
2023-02-12T08:24:22.892Z,60.64
2023-02-12T08:26:51.478Z,60.83
2023-02-12T08:29:24.105Z,60.84
2023-02-12T08:31:57.615Z,60.95
2023-02-12T08:34:31.804Z,59.91
2023-02-12T08:37:01.145Z,59.96
2023-02-12T08:39:30.184Z,59.61
2023-02-12T08:42:00.439Z,59.69
2023-02-12T08:44:28.901Z,59.78
2023-02-12T08:46:56.541Z,60.01
2023-02-12T08:49:27.663Z,59.80
2023-02-12T08:51:57.933Z,59.63
2023-02-12T08:54:27.774Z,59.15
2023-02-12T08:56:58.194Z,58.88
2023-02-12T08:59:26.850Z,58.34
2023-02-12T09:01:55.216Z,58.12
2023-02-12T09:04:27.106Z,58.30
2023-02-12T09:06:57.326Z,57.28
2023-02-12T09:09:25.271Z,57.56
2023-02-12T09:11:53.063Z,57.74
2023-02-12T09:14:22.642Z,57.33
2023-02-12T09:16:52.283Z,57.32
2023-02-12T09:19:21.134Z,57.19
2023-02-12T09:21:56.848Z,56.31
2023-02-12T09:24:26.919Z,56.80
2023-02-12T09:26:54.545Z,56.11
2023-02-12T09:29:22.069Z,56.36
2023-02-12T09:31:49.940Z,53.41
2023-02-12T09:34:18.130Z,54.22
2023-02-12T09:36:45.986Z,54.53
2023-02-12T09:39:13.656Z,54.84
2023-02-12T09:42:01.041Z,54.62
2023-02-12T09:44:52.188Z,55.48
2023-02-12T09:47:47.246Z,55.17
2023-02-12T09:50:39.765Z,55.27
2023-02-12T09:53:12.722Z,55.89
2023-02-12T09:55:40.806Z,54.04
2023-02-12T09:58:31.824Z,53.33
2023-02-12T10:01:03.868Z,52.82
2023-02-12T10:03:31.927Z,52.56
2023-02-12T10:06:04.826Z,52.28
2023-02-12T10:08:40.754Z,53.50
2023-02-12T10:11:39.762Z,53.95
2023-02-12T10:14:24.208Z,53.64
2023-02-12T10:17:16.988Z,54.34
2023-02-12T10:20:13.636Z,54.03
2023-02-12T10:23:03.188Z,54.67
2023-02-12T10:25:56.944Z,54.88
2023-02-12T10:28:35.038Z,54.98
2023-02-12T10:31:17.701Z,55.23
2023-02-12T10:33:49.198Z,54.39
2023-02-12T10:36:34.713Z,54.67
2023-02-12T10:39:13.120Z,54.25
2023-02-12T10:42:16.607Z,53.93
2023-02-12T10:44:44.437Z,53.63
2023-02-12T10:47:17.443Z,54.82
2023-02-12T10:49:45.099Z,54.77
2023-02-12T10:52:27.094Z,55.14
2023-02-12T10:54:54.807Z,53.80
2023-02-12T10:57:26.974Z,54.10
2023-02-12T10:59:58.691Z,54.20
2023-02-12T11:02:30.920Z,54.75
2023-02-12T11:05:01.112Z,55.03
2023-02-12T11:07:29.405Z,55.29
2023-02-12T11:09:57.453Z,55.57
2023-02-12T11:12:40.247Z,55.54
2023-02-12T11:15:20.783Z,55.81
2023-02-12T11:17:59.778Z,55.01
2023-02-12T11:20:36.526Z,54.78
2023-02-12T11:23:07.252Z,54.76
2023-02-12T11:25:37.805Z,54.39
2023-02-12T11:28:18.636Z,54.86
2023-02-12T11:31:02.982Z,53.89
2023-02-12T11:33:36.798Z,54.21
2023-02-12T11:36:19.769Z,53.78
2023-02-12T11:38:57.340Z,53.48
2023-02-12T11:41:38.105Z,53.26
2023-02-12T11:44:23.299Z,53.75
2023-02-12T11:46:59.226Z,53.84
2023-02-12T11:49:34.266Z,54.06
2023-02-12T11:52:04.676Z,53.73
2023-02-12T11:54:42.215Z,53.19
2023-02-12T11:57:46.667Z,53.23
2023-02-12T12:00:31.460Z,52.91
2023-02-12T12:03:37.180Z,53.29
2023-02-12T12:06:35.122Z,53.46
2023-02-12T12:09:10.799Z,53.41
2023-02-12T12:12:13.133Z,53.95
2023-02-12T12:15:12.380Z,53.78
2023-02-12T12:18:16.039Z,53.72
2023-02-12T12:20:58.021Z,54.17
2023-02-12T12:23:37.064Z,54.08
2023-02-12T12:26:10.146Z,54.29
2023-02-12T12:28:45.786Z,54.28
2023-02-12T12:31:38.995Z,53.86
2023-02-12T12:34:22.448Z,53.44
2023-02-12T12:37:35.278Z,53.63
2023-02-12T12:40:37.692Z,53.21
2023-02-12T12:43:20.479Z,52.84
2023-02-12T12:46:11.147Z,52.67
2023-02-12T12:49:00.674Z,52.90
2023-02-12T12:51:56.239Z,52.63
2023-02-12T12:54:44.772Z,52.80
2023-02-12T12:57:35.492Z,53.18
2023-02-12T13:00:12.258Z,52.82
2023-02-12T13:02:54.347Z,53.29
2023-02-12T13:06:03.209Z,53.31
2023-02-12T13:08:51.159Z,53.08
2023-02-12T13:11:29.870Z,53.22
2023-02-12T13:14:05.879Z,53.15
2023-02-12T13:16:38.953Z,53.10
2023-02-12T13:19:39.771Z,52.73
2023-02-12T13:22:26.351Z,52.89
2023-02-12T13:25:05.171Z,52.99
2023-02-12T13:27:37.584Z,53.35
2023-02-12T13:30:25.502Z,52.96
2023-02-12T13:33:19.629Z,52.60
2023-02-12T13:35:52.336Z,52.52
2023-02-12T13:38:30.909Z,51.50
2023-02-12T13:41:03.223Z,52.15
2023-02-12T13:43:45.063Z,52.12
2023-02-12T13:46:48.543Z,51.58
2023-02-12T13:49:25.620Z,51.93
2023-02-12T13:52:04.885Z,51.46
2023-02-12T13:54:37.684Z,52.21
2023-02-12T13:57:16.707Z,51.09
2023-02-12T13:59:48.706Z,51.93
2023-02-12T14:02:34.017Z,51.79
2023-02-12T14:05:25.281Z,50.92
2023-02-12T14:08:05.601Z,51.44
2023-02-12T14:10:41.214Z,51.25
2023-02-12T14:13:17.139Z,51.45
2023-02-12T14:15:55.806Z,52.01
2023-02-12T14:18:34.359Z,51.82
2023-02-12T14:21:13.457Z,52.21
2023-02-12T14:23:45.800Z,52.25
2023-02-12T14:26:19.631Z,51.78
2023-02-12T14:29:00.097Z,52.09
2023-02-12T14:31:37.431Z,52.33
2023-02-12T14:34:11.015Z,52.22
2023-02-12T14:36:45.142Z,52.54
2023-02-12T14:39:29.068Z,52.51
2023-02-12T14:42:12.162Z,52.27
2023-02-12T14:44:57.783Z,51.72
2023-02-12T14:47:36.930Z,51.87
2023-02-12T14:50:18.538Z,51.79
2023-02-12T14:52:52.557Z,51.90
2023-02-12T14:55:27.572Z,51.93
2023-02-12T14:58:09.328Z,52.18
2023-02-12T15:00:40.309Z,51.93
2023-02-12T15:03:24.371Z,52.10
2023-02-12T15:06:06.744Z,52.14
2023-02-12T15:09:07.321Z,52.26
2023-02-12T15:11:49.320Z,52.26
2023-02-12T15:14:31.290Z,52.31
2023-02-12T15:17:29.278Z,52.52
2023-02-12T15:20:14.674Z,52.77
2023-02-12T15:22:43.354Z,53.03
2023-02-12T15:25:32.275Z,53.41
2023-02-12T15:28:07.898Z,53.64
2023-02-12T15:30:36.872Z,53.97
2023-02-12T15:33:07.714Z,54.17
2023-02-12T15:35:43.192Z,54.41
2023-02-12T15:38:27.617Z,54.67
2023-02-12T15:40:59.695Z,54.78
2023-02-12T15:43:33.010Z,55.05
2023-02-12T15:46:03.679Z,55.27
2023-02-12T15:48:35.169Z,55.43
2023-02-12T15:51:24.817Z,55.56
2023-02-12T15:53:52.926Z,55.79
2023-02-12T15:56:23.085Z,55.99
2023-02-12T15:58:57.458Z,56.14
2023-02-12T16:01:28.738Z,56.33
2023-02-12T16:04:08.202Z,56.49
2023-02-12T16:06:36.339Z,56.62
2023-02-12T16:09:22.828Z,56.71
2023-02-12T16:11:51.321Z,56.92
2023-02-12T16:14:30.935Z,57.09
2023-02-12T16:16:59.474Z,57.14
2023-02-12T16:19:32.332Z,57.19
2023-02-12T16:22:05.408Z,57.24
2023-02-12T16:24:40.162Z,57.36
2023-02-12T16:27:18.641Z,57.57
2023-02-12T16:29:53.092Z,57.70
2023-02-12T16:32:42.706Z,57.88
2023-02-12T16:35:15.698Z,58.01
2023-02-12T16:37:47.921Z,58.13
2023-02-12T16:40:26.624Z,58.42
2023-02-12T16:42:57.850Z,58.73
2023-02-12T16:45:31.646Z,58.88
2023-02-12T16:48:11.535Z,58.81
2023-02-12T16:50:50.469Z,59.03
2023-02-12T16:53:33.922Z,59.05
2023-02-12T16:56:04.967Z,59.18
2023-02-12T16:58:32.569Z,59.22
2023-02-12T17:01:04.058Z,59.28
2023-02-12T17:03:31.836Z,59.40
2023-02-12T17:05:59.631Z,59.42
2023-02-12T17:08:27.513Z,59.53
2023-02-12T17:10:55.278Z,59.60
2023-02-12T17:13:23.134Z,59.57
2023-02-12T17:15:57.582Z,59.56
2023-02-12T17:18:25.696Z,59.52
2023-02-12T17:20:57.809Z,59.55
2023-02-12T17:23:25.689Z,59.57
2023-02-12T17:25:54.040Z,59.63
2023-02-12T17:28:22.743Z,59.68
2023-02-12T17:30:53.064Z,59.68
2023-02-12T17:33:22.339Z,59.84
2023-02-12T17:35:50.228Z,60.10
2023-02-12T17:38:18.330Z,60.16
2023-02-12T17:40:46.562Z,60.26
2023-02-12T17:43:14.743Z,60.21
2023-02-12T17:45:43.348Z,60.21
2023-02-12T17:48:12.627Z,60.19
2023-02-12T17:50:41.489Z,60.15
2023-02-12T17:53:10.234Z,60.09
2023-02-12T17:55:40.534Z,60.02
2023-02-12T17:58:08.525Z,59.77
2023-02-12T18:00:36.368Z,59.65
2023-02-12T18:03:04.353Z,59.60
2023-02-12T18:05:32.301Z,59.67
2023-02-12T18:08:01.886Z,59.74
2023-02-12T18:10:29.692Z,59.78
2023-02-12T18:12:57.571Z,59.75
2023-02-12T18:15:25.354Z,59.58
2023-02-12T18:17:53.046Z,59.52
2023-02-12T18:20:20.788Z,59.55
2023-02-12T18:22:49.639Z,59.61
2023-02-12T18:25:18.879Z,59.51
2023-02-12T18:27:46.763Z,59.51
2023-02-12T18:30:15.071Z,59.57
2023-02-12T18:32:42.971Z,59.59
2023-02-12T18:35:10.865Z,59.54
2023-02-12T18:37:42.879Z,59.45
2023-02-12T18:40:11.571Z,59.47
2023-02-12T18:42:39.869Z,59.42
2023-02-12T18:45:08.385Z,59.41
2023-02-12T18:47:36.016Z,59.50
2023-02-12T18:50:04.617Z,59.60
2023-02-12T18:52:32.387Z,59.67
2023-02-12T18:55:00.243Z,59.67
2023-02-12T18:57:29.187Z,59.68
2023-02-12T18:59:57.023Z,59.75
2023-02-12T19:02:24.645Z,59.81
2023-02-12T19:04:52.616Z,59.85
2023-02-12T19:07:20.504Z,59.75
2023-02-12T19:09:48.440Z,59.74
2023-02-12T19:12:16.361Z,59.72
2023-02-12T19:14:44.249Z,59.68
2023-02-12T19:17:12.517Z,59.60
2023-02-12T19:19:40.456Z,59.55
2023-02-12T19:22:08.260Z,59.63
2023-02-12T19:24:46.264Z,59.67
2023-02-12T19:27:05.698Z,59.74
2023-02-12T19:29:34.395Z,59.74
2023-02-12T19:32:02.826Z,59.67
2023-02-12T19:34:30.598Z,59.69
2023-02-12T19:36:58.522Z,59.74
2023-02-12T19:39:26.909Z,59.68
2023-02-12T19:41:55.736Z,59.78
2023-02-12T19:44:25.087Z,59.84
2023-02-12T19:46:53.447Z,59.74
2023-02-12T19:49:24.986Z,59.51
2023-02-12T19:51:53.258Z,59.36
2023-02-12T19:54:22.821Z,59.35
2023-02-12T19:56:52.343Z,59.29
2023-02-12T19:59:22.989Z,59.32
2023-02-12T20:01:50.819Z,59.41
2023-02-12T20:04:22.227Z,59.53
2023-02-12T20:06:51.879Z,59.50
2023-02-12T20:09:22.162Z,59.53
2023-02-12T20:11:50.353Z,59.54
2023-02-12T20:14:22.103Z,59.66
2023-02-12T20:16:53.360Z,59.79
2023-02-12T20:19:29.443Z,59.74
2023-02-12T20:22:01.053Z,59.69
2023-02-12T20:24:32.862Z,59.67
2023-02-12T20:27:02.084Z,59.62
2023-02-12T20:29:29.880Z,59.56
2023-02-12T20:31:58.073Z,59.69
2023-02-12T20:34:25.656Z,59.68
2023-02-12T20:36:54.025Z,59.71
2023-02-12T20:39:22.974Z,59.62
2023-02-12T20:41:50.842Z,59.78
2023-02-12T20:44:20.833Z,59.68
2023-02-12T20:46:54.524Z,59.72
2023-02-12T20:49:20.846Z,59.81
2023-02-12T20:51:50.315Z,59.72
2023-02-12T20:54:18.135Z,59.82
2023-02-12T20:56:45.721Z,59.78
2023-02-12T20:59:13.651Z,59.75
2023-02-12T21:01:42.037Z,59.79
2023-02-12T21:04:14.290Z,59.87
2023-02-12T21:06:42.740Z,59.90
2023-02-12T21:09:13.807Z,59.87
2023-02-12T21:11:45.227Z,59.78
2023-02-12T21:14:23.843Z,59.90
2023-02-12T21:16:44.492Z,59.84
2023-02-12T21:19:13.708Z,59.78
2023-02-12T21:21:48.162Z,59.83
2023-02-12T21:24:20.994Z,59.91
2023-02-12T21:26:49.829Z,59.83
2023-02-12T21:29:18.311Z,59.88
2023-02-12T21:31:49.242Z,59.83
2023-02-12T21:34:20.582Z,59.89
2023-02-12T21:36:50.439Z,60.11
2023-02-12T21:39:25.638Z,59.84
2023-02-12T21:42:01.230Z,60.14
2023-02-12T21:44:31.539Z,60.28
2023-02-12T21:46:59.311Z,60.39
2023-02-12T21:49:27.645Z,60.46
2023-02-12T21:52:01.834Z,60.27
2023-02-12T21:54:30.485Z,60.27
2023-02-12T21:56:59.519Z,60.16
2023-02-12T21:59:30.125Z,60.16
2023-02-12T22:01:58.606Z,60.02
2023-02-12T22:04:26.529Z,60.01
2023-02-12T22:06:55.827Z,60.22
2023-02-12T22:09:23.789Z,60.04
2023-02-12T22:11:51.612Z,60.06
2023-02-12T22:14:20.395Z,59.99
2023-02-12T22:16:48.068Z,60.02
2023-02-12T22:19:15.816Z,59.93
2023-02-12T22:21:44.015Z,59.93
2023-02-12T22:24:15.254Z,59.78
2023-02-12T22:26:44.323Z,59.96
2023-02-12T22:29:15.315Z,60.07
2023-02-12T22:31:45.585Z,60.19
2023-02-12T22:34:16.491Z,60.16
2023-02-12T22:36:45.283Z,60.17
2023-02-12T22:39:14.365Z,60.18
2023-02-12T22:41:42.198Z,60.12
2023-02-12T22:44:12.267Z,60.08
2023-02-12T22:46:41.697Z,59.97
2023-02-12T22:49:09.585Z,59.87
2023-02-12T22:51:39.051Z,59.84
2023-02-12T22:54:09.779Z,59.99
2023-02-12T22:56:37.446Z,59.92
2023-02-12T22:59:05.012Z,60.04
2023-02-12T23:01:32.902Z,60.08
2023-02-12T23:04:00.725Z,60.06
2023-02-12T23:06:30.643Z,60.15
2023-02-12T23:09:02.977Z,60.08
2023-02-12T23:11:33.607Z,60.22
2023-02-12T23:14:01.276Z,60.14
2023-02-12T23:16:29.099Z,60.18
2023-02-12T23:18:58.707Z,60.08
2023-02-12T23:21:29.704Z,60.07
2023-02-12T23:24:00.957Z,60.16
2023-02-12T23:26:29.779Z,60.04
2023-02-12T23:28:58.673Z,60.06
2023-02-12T23:31:26.699Z,59.93
2023-02-12T23:33:54.374Z,59.89
2023-02-12T23:36:22.009Z,59.81
2023-02-12T23:38:49.526Z,59.88
2023-02-12T23:41:16.951Z,59.77
2023-02-12T23:43:44.620Z,59.82
2023-02-12T23:46:12.192Z,59.80
2023-02-12T23:48:40.648Z,60.11
2023-02-12T23:51:08.107Z,60.11
2023-02-12T23:53:35.773Z,59.96
2023-02-12T23:56:03.508Z,59.96
2023-02-12T23:58:31.231Z,59.96
